createdAt,value
2023-01-18T00:00:17.569Z,4.32
2023-01-18T00:01:17.867Z,4.31
2023-01-18T00:02:17.520Z,4.34
2023-01-18T00:03:18.107Z,4.3
2023-01-18T00:04:17.979Z,4.37
2023-01-18T00:05:17.876Z,4.34
2023-01-18T00:06:18.029Z,4.38
2023-01-18T00:07:17.915Z,4.3
2023-01-18T00:08:17.726Z,4.35
2023-01-18T00:09:17.952Z,4.28
2023-01-18T00:10:17.952Z,4.34
2023-01-18T00:11:18.019Z,4.32
2023-01-18T00:12:17.978Z,4.34
2023-01-18T00:13:17.740Z,4.35
2023-01-18T00:14:18.022Z,4.35
2023-01-18T00:15:18.018Z,4.32
2023-01-18T00:16:18.307Z,4.24
2023-01-18T00:17:18.094Z,4.34
2023-01-18T00:18:17.812Z,4.24
2023-01-18T00:19:18.124Z,4.28
2023-01-18T00:20:18.170Z,4.24
2023-01-18T00:21:17.853Z,4.3
2023-01-18T00:22:18.129Z,4.24
2023-01-18T00:23:18.140Z,4.28
2023-01-18T00:24:17.884Z,4.23
2023-01-18T00:25:18.189Z,4.2
2023-01-18T00:26:18.106Z,4.22
2023-01-18T00:27:18.189Z,4.17
2023-01-18T00:28:18.213Z,4.2
2023-01-18T00:29:17.697Z,4.22
2023-01-18T00:30:18.248Z,4.23
2023-01-18T00:31:18.417Z,4.22
2023-01-18T00:32:18.312Z,4.22
2023-01-18T00:33:18.260Z,4.24
2023-01-18T00:34:18.285Z,4.19
2023-01-18T00:35:17.874Z,4.19
2023-01-18T00:36:18.428Z,4.2
2023-01-18T00:37:18.169Z,4.22
2023-01-18T00:38:18.067Z,4.16
2023-01-18T00:39:18.343Z,4.17
2023-01-18T00:40:18.130Z,4.19
2023-01-18T00:41:18.379Z,4.17
2023-01-18T00:42:17.871Z,4.17
2023-01-18T00:43:18.152Z,4.13
2023-01-18T00:44:18.419Z,4.16
2023-01-18T00:45:18.431Z,4.14
2023-01-18T00:46:18.454Z,4.2
2023-01-18T00:47:18.468Z,4.13
2023-01-18T00:48:18.222Z,4.2
2023-01-18T00:49:18.503Z,4.06
2023-01-18T00:50:18.491Z,4.1
2023-01-18T00:51:18.306Z,4.16
2023-01-18T00:52:18.576Z,4.2
2023-01-18T00:53:18.542Z,4.13
2023-01-18T00:54:18.531Z,4.08
2023-01-18T00:55:18.562Z,4.1
2023-01-18T00:56:18.574Z,4.06
2023-01-18T00:57:18.592Z,4.06
2023-01-18T00:58:18.591Z,4.08
2023-01-18T00:59:18.618Z,4.05
2023-01-18T01:00:18.137Z,4.01
2023-01-18T01:01:19.183Z,3.99
2023-01-18T01:02:18.704Z,4.01
2023-01-18T01:03:18.656Z,4.02
2023-01-18T01:04:18.432Z,4.06
2023-01-18T01:05:18.483Z,4.02
2023-01-18T01:06:18.212Z,4.02
2023-01-18T01:07:18.749Z,3.96
2023-01-18T01:08:18.830Z,4.04
2023-01-18T01:09:18.489Z,3.95
2023-01-18T01:10:18.805Z,3.95
2023-01-18T01:11:18.777Z,3.98
2023-01-18T01:12:18.790Z,4.04
2023-01-18T01:13:18.793Z,3.98
2023-01-18T01:14:18.838Z,3.96
2023-01-18T01:15:18.632Z,3.95
2023-01-18T01:16:18.702Z,4.01
2023-01-18T01:17:19.055Z,3.96
2023-01-18T01:18:18.604Z,4.04
2023-01-18T01:19:18.774Z,3.92
2023-01-18T01:20:18.648Z,3.91
2023-01-18T01:21:18.923Z,3.92
2023-01-18T01:22:18.658Z,3.94
2023-01-18T01:23:18.940Z,3.92
2023-01-18T01:24:19.068Z,3.87
2023-01-18T01:25:18.992Z,3.96
2023-01-18T01:26:18.979Z,3.91
2023-01-18T01:27:19.073Z,3.95
2023-01-18T01:28:19.003Z,3.92
2023-01-18T01:29:18.768Z,3.92
2023-01-18T01:30:19.044Z,3.88
2023-01-18T01:31:18.815Z,3.98
2023-01-18T01:32:18.795Z,3.86
2023-01-18T01:33:19.085Z,3.91
2023-01-18T01:34:19.098Z,3.87
2023-01-18T01:35:19.297Z,3.87
2023-01-18T01:36:19.113Z,3.8
2023-01-18T01:37:19.124Z,3.83
2023-01-18T01:38:19.151Z,3.86
2023-01-18T01:39:19.156Z,3.86
2023-01-18T01:40:19.351Z,3.91
2023-01-18T01:41:18.954Z,3.83
2023-01-18T01:42:19.187Z,3.92
2023-01-18T01:43:19.219Z,3.83
2023-01-18T01:44:19.213Z,3.87
2023-01-18T01:45:18.989Z,3.84
2023-01-18T01:46:19.057Z,3.86
2023-01-18T01:47:19.270Z,3.87
2023-01-18T01:48:19.307Z,3.78
2023-01-18T01:49:19.300Z,3.87
2023-01-18T01:50:19.360Z,3.88
2023-01-18T01:51:19.061Z,3.83
2023-01-18T01:52:19.335Z,3.8
2023-01-18T01:53:19.078Z,3.84
2023-01-18T01:54:19.353Z,3.84
2023-01-18T01:55:19.373Z,3.84
2023-01-18T01:56:19.463Z,3.81
2023-01-18T01:57:19.145Z,3.84
2023-01-18T01:58:19.443Z,3.8
2023-01-18T01:59:19.426Z,3.86
2023-01-18T02:00:19.324Z,3.77
2023-01-18T02:01:19.639Z,3.83
2023-01-18T02:02:19.666Z,3.83
2023-01-18T02:03:19.487Z,3.8
2023-01-18T02:04:19.487Z,3.81
2023-01-18T02:05:19.297Z,3.7
2023-01-18T02:06:19.518Z,3.78
2023-01-18T02:07:19.528Z,3.83
2023-01-18T02:08:19.281Z,3.74
2023-01-18T02:09:19.576Z,3.74
2023-01-18T02:10:19.572Z,3.7
2023-01-18T02:11:19.314Z,3.73
2023-01-18T02:12:19.685Z,3.73
2023-01-18T02:13:19.353Z,3.74
2023-01-18T02:14:19.622Z,3.73
2023-01-18T02:15:22.328Z,3.73
2023-01-18T02:16:19.747Z,3.73
2023-01-18T02:17:19.978Z,3.68
2023-01-18T02:18:19.700Z,3.73
2023-01-18T02:19:19.436Z,3.7
2023-01-18T02:20:19.522Z,3.68
2023-01-18T02:21:19.726Z,3.7
2023-01-18T02:22:19.731Z,3.76
2023-01-18T02:23:19.494Z,3.73
2023-01-18T02:24:19.764Z,3.73
2023-01-18T02:25:19.770Z,3.74
2023-01-18T02:26:19.785Z,3.7
2023-01-18T02:27:19.817Z,3.69
2023-01-18T02:28:19.932Z,3.74
2023-01-18T02:29:19.942Z,3.7
2023-01-18T02:30:19.823Z,3.73
2023-01-18T02:31:19.893Z,3.73
2023-01-18T02:32:19.355Z,3.74
2023-01-18T02:33:19.882Z,3.68
2023-01-18T02:34:19.621Z,3.77
2023-01-18T02:35:19.674Z,3.7
2023-01-18T02:36:19.922Z,3.73
2023-01-18T02:37:19.684Z,3.68
2023-01-18T02:38:19.950Z,3.66
2023-01-18T02:39:19.693Z,3.63
2023-01-18T02:40:19.974Z,3.62
2023-01-18T02:41:20.003Z,3.63
2023-01-18T02:42:20.007Z,3.59
2023-01-18T02:43:20.023Z,3.66
2023-01-18T02:44:20.108Z,3.68
2023-01-18T02:45:19.765Z,3.66
2023-01-18T02:46:20.216Z,3.63
2023-01-18T02:47:20.054Z,3.66
2023-01-18T02:48:19.818Z,3.62
2023-01-18T02:49:20.112Z,3.62
2023-01-18T02:50:20.096Z,3.63
2023-01-18T02:51:20.123Z,3.68
2023-01-18T02:52:19.877Z,3.6
2023-01-18T02:53:19.890Z,3.6
2023-01-18T02:54:20.161Z,3.56
2023-01-18T02:55:19.917Z,3.62
2023-01-18T02:56:20.201Z,3.6
2023-01-18T02:57:19.676Z,3.6
2023-01-18T02:58:20.208Z,3.59
2023-01-18T02:59:20.244Z,3.62
2023-01-18T03:00:20.323Z,3.56
2023-01-18T03:01:20.491Z,3.5
2023-01-18T03:02:20.556Z,3.48
2023-01-18T03:03:20.275Z,3.5
2023-01-18T03:04:20.278Z,3.48
2023-01-18T03:05:20.065Z,3.59
2023-01-18T03:06:20.312Z,3.48
2023-01-18T03:07:20.080Z,3.5
2023-01-18T03:08:20.360Z,3.58
2023-01-18T03:09:20.107Z,3.47
2023-01-18T03:10:20.378Z,3.48
2023-01-18T03:11:20.131Z,3.51
2023-01-18T03:12:20.400Z,3.58
2023-01-18T03:13:20.166Z,3.53
2023-01-18T03:14:20.434Z,3.55
2023-01-18T03:15:20.450Z,3.56
2023-01-18T03:16:20.508Z,3.53
2023-01-18T03:17:20.661Z,3.5
2023-01-18T03:18:20.224Z,3.53
2023-01-18T03:19:20.485Z,3.53
2023-01-18T03:20:20.525Z,3.53
2023-01-18T03:21:20.260Z,3.55
2023-01-18T03:22:20.529Z,3.6
2023-01-18T03:23:20.541Z,3.59
2023-01-18T03:24:20.547Z,3.51
2023-01-18T03:25:20.605Z,3.5
2023-01-18T03:26:20.337Z,3.53
2023-01-18T03:27:20.601Z,3.47
2023-01-18T03:28:20.607Z,3.59
2023-01-18T03:29:20.637Z,3.45
2023-01-18T03:30:20.577Z,3.45
2023-01-18T03:31:20.821Z,3.45
2023-01-18T03:32:20.781Z,3.5
2023-01-18T03:33:20.683Z,3.45
2023-01-18T03:34:20.705Z,3.47
2023-01-18T03:35:20.448Z,3.5
2023-01-18T03:36:20.725Z,3.42
2023-01-18T03:37:20.473Z,3.48
2023-01-18T03:38:20.492Z,3.5
2023-01-18T03:39:20.755Z,3.45
2023-01-18T03:40:20.793Z,3.5
2023-01-18T03:41:20.547Z,3.34
2023-01-18T03:42:20.815Z,3.37
2023-01-18T03:43:20.829Z,3.42
2023-01-18T03:44:20.660Z,3.51
2023-01-18T03:45:20.820Z,3.47
2023-01-18T03:46:21.052Z,3.4
2023-01-18T03:47:20.628Z,3.48
2023-01-18T03:48:21.138Z,3.34
2023-01-18T03:49:20.915Z,3.4
2023-01-18T03:50:20.889Z,3.36
2023-01-18T03:51:20.651Z,3.42
2023-01-18T03:52:20.921Z,3.37
2023-01-18T03:53:20.933Z,3.31
2023-01-18T03:54:20.434Z,3.36
2023-01-18T03:55:20.699Z,3.36
2023-01-18T03:56:20.971Z,3.34
2023-01-18T03:57:20.988Z,3.37
2023-01-18T03:58:20.998Z,3.4
2023-01-18T03:59:21.030Z,3.31
2023-01-18T04:00:20.789Z,3.31
2023-01-18T04:01:21.498Z,3.37
2023-01-18T04:02:21.105Z,3.36
2023-01-18T04:03:20.814Z,3.36
2023-01-18T04:04:21.190Z,3.41
2023-01-18T04:05:21.103Z,3.37
2023-01-18T04:06:21.096Z,3.34
2023-01-18T04:07:20.874Z,3.36
2023-01-18T04:08:20.873Z,3.34
2023-01-18T04:09:20.887Z,3.25
2023-01-18T04:10:20.633Z,3.31
2023-01-18T04:11:21.180Z,3.31
2023-01-18T04:12:21.187Z,3.32
2023-01-18T04:13:21.213Z,3.34
2023-01-18T04:14:21.204Z,3.25
2023-01-18T04:15:20.967Z,3.29
2023-01-18T04:16:21.319Z,3.25
2023-01-18T04:17:21.540Z,3.26
2023-01-18T04:18:21.005Z,3.25
2023-01-18T04:19:21.276Z,3.23
2023-01-18T04:20:21.374Z,3.29
2023-01-18T04:21:21.330Z,3.23
2023-01-18T04:22:21.313Z,3.25
2023-01-18T04:23:21.059Z,3.36
2023-01-18T04:24:21.357Z,3.31
2023-01-18T04:25:21.102Z,3.32
2023-01-18T04:26:21.365Z,3.25
2023-01-18T04:27:23.498Z,3.31
2023-01-18T04:28:20.873Z,3.21
2023-01-18T04:29:21.188Z,3.22
2023-01-18T04:30:21.415Z,3.25
2023-01-18T04:31:21.802Z,3.25
2023-01-18T04:32:21.461Z,3.16
2023-01-18T04:33:21.473Z,3.13
2023-01-18T04:34:21.469Z,3.16
2023-01-18T04:35:21.225Z,3.19
2023-01-18T04:36:21.573Z,3.16
2023-01-18T04:37:21.247Z,3.16
2023-01-18T04:38:21.519Z,3.16
2023-01-18T04:39:21.541Z,3.18
2023-01-18T04:40:21.286Z,3.16
2023-01-18T04:41:21.572Z,3.14
2023-01-18T04:42:21.574Z,3.19
2023-01-18T04:43:21.590Z,3.11
2023-01-18T04:44:21.608Z,3.16
2023-01-18T04:45:21.625Z,3.18
2023-01-18T04:46:21.799Z,3.19
2023-01-18T04:47:21.640Z,3.18
2023-01-18T04:48:21.648Z,3.16
2023-01-18T04:49:21.667Z,3.14
2023-01-18T04:50:21.696Z,3.18
2023-01-18T04:51:21.708Z,3.11
2023-01-18T04:52:23.961Z,3.18
2023-01-18T04:53:21.750Z,3.13
2023-01-18T04:54:21.509Z,3.11
2023-01-18T04:55:21.775Z,3.11
2023-01-18T04:56:21.757Z,3.19
2023-01-18T04:57:21.614Z,3.1
2023-01-18T04:58:21.775Z,3.21
2023-01-18T04:59:21.839Z,3.1
2023-01-18T05:00:21.828Z,3.16
2023-01-18T05:01:22.207Z,3.08
2023-01-18T05:02:21.746Z,3.16
2023-01-18T05:03:21.595Z,3.1
2023-01-18T05:04:21.871Z,3.13
2023-01-18T05:05:21.880Z,3.1
2023-01-18T05:06:21.876Z,3.07
2023-01-18T05:07:21.642Z,3.07
2023-01-18T05:08:22.001Z,3.13
2023-01-18T05:09:21.680Z,3.03
2023-01-18T05:10:21.973Z,3.05
2023-01-18T05:11:21.967Z,3.16
2023-01-18T05:12:21.996Z,3.08
2023-01-18T05:13:21.986Z,3.08
2023-01-18T05:14:21.988Z,3.04
2023-01-18T05:15:21.497Z,3.1
2023-01-18T05:16:22.195Z,3.13
2023-01-18T05:17:22.241Z,3.11
2023-01-18T05:18:22.047Z,3.07
2023-01-18T05:19:22.072Z,3.07
2023-01-18T05:20:21.821Z,3.03
2023-01-18T05:21:22.123Z,3.07
2023-01-18T05:22:21.851Z,3.07
2023-01-18T05:23:22.110Z,3.01
2023-01-18T05:24:22.202Z,3.08
2023-01-18T05:25:21.876Z,3.05
2023-01-18T05:26:22.176Z,2.97
2023-01-18T05:27:22.163Z,3.07
2023-01-18T05:28:22.183Z,3.04
2023-01-18T05:29:22.185Z,3.04
2023-01-18T05:30:22.394Z,2.97
2023-01-18T05:31:22.373Z,2.98
2023-01-18T05:32:22.231Z,2.95
2023-01-18T05:33:22.243Z,3.03
2023-01-18T05:34:22.242Z,3.04
2023-01-18T05:35:22.373Z,3.05
2023-01-18T05:36:22.293Z,3.03
2023-01-18T05:37:22.301Z,2.97
2023-01-18T05:38:22.322Z,2.97
2023-01-18T05:39:22.054Z,3.03
2023-01-18T05:40:22.449Z,3.03
2023-01-18T05:41:22.090Z,3.03
2023-01-18T05:42:22.361Z,2.97
2023-01-18T05:43:22.373Z,3.05
2023-01-18T05:44:22.384Z,3.05
2023-01-18T05:45:21.881Z,3.01
2023-01-18T05:46:22.177Z,3
2023-01-18T05:47:22.424Z,2.95
2023-01-18T05:48:22.464Z,2.92
2023-01-18T05:49:22.205Z,2.97
2023-01-18T05:50:22.473Z,2.98
2023-01-18T05:51:22.507Z,3.03
2023-01-18T05:52:22.491Z,3.01
2023-01-18T05:53:22.505Z,3
2023-01-18T05:54:22.531Z,2.97
2023-01-18T05:55:22.226Z,3.01
2023-01-18T05:56:22.622Z,2.95
2023-01-18T05:57:22.562Z,3.03
2023-01-18T05:58:22.303Z,3.01
2023-01-18T05:59:22.316Z,3.01
2023-01-18T06:00:22.598Z,2.95
2023-01-18T06:01:22.815Z,2.92
2023-01-18T06:02:22.621Z,2.95
2023-01-18T06:03:22.652Z,2.98
2023-01-18T06:04:22.639Z,3.03
2023-01-18T06:05:22.403Z,2.93
2023-01-18T06:06:22.661Z,2.9
2023-01-18T06:07:22.416Z,3.01
2023-01-18T06:08:22.449Z,2.89
2023-01-18T06:09:22.456Z,3.01
2023-01-18T06:10:22.725Z,2.97
2023-01-18T06:11:22.719Z,2.97
2023-01-18T06:12:22.827Z,2.97
2023-01-18T06:13:22.769Z,2.93
2023-01-18T06:14:22.509Z,2.93
2023-01-18T06:15:22.565Z,2.97
2023-01-18T06:16:22.931Z,2.95
2023-01-18T06:17:23.268Z,2.89
2023-01-18T06:18:22.847Z,2.95
2023-01-18T06:19:22.828Z,2.95
2023-01-18T06:20:22.860Z,2.98
2023-01-18T06:21:22.923Z,2.93
2023-01-18T06:22:22.932Z,2.89
2023-01-18T06:23:22.887Z,2.97
2023-01-18T06:24:22.662Z,2.92
2023-01-18T06:25:22.931Z,2.89
2023-01-18T06:26:22.417Z,2.86
2023-01-18T06:27:22.413Z,2.86
2023-01-18T06:28:23.125Z,2.86
2023-01-18T06:29:22.977Z,2.92
2023-01-18T06:30:22.741Z,2.86
2023-01-18T06:31:22.904Z,2.86
2023-01-18T06:32:22.870Z,2.89
2023-01-18T06:33:23.046Z,2.83
2023-01-18T06:34:23.103Z,2.8
2023-01-18T06:35:23.047Z,2.89
2023-01-18T06:36:22.807Z,2.85
2023-01-18T06:37:23.072Z,2.87
2023-01-18T06:38:23.115Z,2.86
2023-01-18T06:39:23.126Z,2.85
2023-01-18T06:40:23.113Z,2.83
2023-01-18T06:41:23.143Z,2.83
2023-01-18T06:42:23.172Z,2.83
2023-01-18T06:43:22.928Z,2.83
2023-01-18T06:44:23.235Z,2.83
2023-01-18T06:45:23.173Z,2.87
2023-01-18T06:46:23.342Z,2.83
2023-01-18T06:47:22.982Z,2.82
2023-01-18T06:48:23.212Z,2.89
2023-01-18T06:49:23.236Z,2.8
2023-01-18T06:50:23.233Z,2.82
2023-01-18T06:51:23.009Z,2.83
2023-01-18T06:52:23.261Z,2.83
2023-01-18T06:53:23.303Z,2.8
2023-01-18T06:54:23.292Z,2.83
2023-01-18T06:55:23.293Z,2.82
2023-01-18T06:56:23.061Z,2.8
2023-01-18T06:57:23.339Z,2.79
2023-01-18T06:58:23.334Z,2.83
2023-01-18T06:59:23.377Z,2.89
2023-01-18T07:00:23.446Z,2.83
2023-01-18T07:01:23.779Z,2.77
2023-01-18T07:02:23.422Z,2.82
2023-01-18T07:03:23.149Z,2.83
2023-01-18T07:04:23.728Z,2.83
2023-01-18T07:05:23.443Z,2.82
2023-01-18T07:06:23.439Z,2.79
2023-01-18T07:07:23.467Z,2.83
2023-01-18T07:08:23.527Z,2.79
2023-01-18T07:09:23.489Z,2.85
2023-01-18T07:10:23.488Z,2.79
2023-01-18T07:11:23.566Z,2.79
2023-01-18T07:12:23.518Z,2.8
2023-01-18T07:13:23.555Z,2.8
2023-01-18T07:14:23.559Z,2.75
2023-01-18T07:15:27.785Z,2.74
2023-01-18T07:16:23.621Z,2.79
2023-01-18T07:17:23.631Z,2.83
2023-01-18T07:18:23.602Z,2.72
2023-01-18T07:19:23.357Z,2.82
2023-01-18T07:20:23.649Z,2.83
2023-01-18T07:21:23.380Z,2.75
2023-01-18T07:22:23.615Z,2.83
2023-01-18T07:23:23.667Z,2.85
2023-01-18T07:24:23.424Z,2.72
2023-01-18T07:25:23.744Z,2.79
2023-01-18T07:26:23.724Z,2.82
2023-01-18T07:27:23.724Z,2.85
2023-01-18T07:28:23.741Z,2.69
2023-01-18T07:29:23.746Z,2.8
2023-01-18T07:30:23.790Z,2.79
2023-01-18T07:31:23.868Z,2.77
2023-01-18T07:32:23.546Z,2.71
2023-01-18T07:33:23.534Z,2.75
2023-01-18T07:34:23.561Z,2.82
2023-01-18T07:35:23.805Z,2.79
2023-01-18T07:36:23.826Z,2.82
2023-01-18T07:37:23.849Z,2.82
2023-01-18T07:38:23.599Z,2.86
2023-01-18T07:39:23.897Z,2.82
2023-01-18T07:40:23.898Z,2.82
2023-01-18T07:41:23.911Z,2.82
2023-01-18T07:42:23.927Z,2.8
2023-01-18T07:43:23.931Z,2.8
2023-01-18T07:44:23.938Z,2.82
2023-01-18T07:45:23.968Z,2.75
2023-01-18T07:46:24.104Z,2.82
2023-01-18T07:47:24.039Z,2.75
2023-01-18T07:48:24.010Z,2.75
2023-01-18T07:49:24.005Z,2.79
2023-01-18T07:50:24.021Z,2.8
2023-01-18T07:51:24.058Z,2.79
2023-01-18T07:52:23.792Z,2.79
2023-01-18T07:53:23.798Z,2.77
2023-01-18T07:54:24.099Z,2.65
2023-01-18T07:55:24.125Z,2.82
2023-01-18T07:56:23.832Z,2.77
2023-01-18T07:57:23.852Z,2.71
2023-01-18T07:58:23.875Z,2.75
2023-01-18T07:59:24.197Z,2.75
2023-01-18T08:00:24.180Z,2.65
2023-01-18T08:01:24.764Z,2.68
2023-01-18T08:02:24.061Z,2.68
2023-01-18T08:03:23.994Z,2.67
2023-01-18T08:04:24.223Z,2.67
2023-01-18T08:05:24.218Z,2.67
2023-01-18T08:06:24.274Z,2.75
2023-01-18T08:07:24.249Z,2.71
2023-01-18T08:08:23.997Z,2.68
2023-01-18T08:09:24.257Z,2.71
2023-01-18T08:10:24.016Z,2.74
2023-01-18T08:11:24.305Z,2.71
2023-01-18T08:12:24.295Z,2.68
2023-01-18T08:13:24.326Z,2.67
2023-01-18T08:14:24.356Z,2.61
2023-01-18T08:15:24.079Z,2.67
2023-01-18T08:16:24.088Z,2.61
2023-01-18T08:17:24.297Z,2.65
2023-01-18T08:18:24.382Z,2.64
2023-01-18T08:19:24.444Z,2.61
2023-01-18T08:20:24.450Z,2.65
2023-01-18T08:21:24.166Z,2.64
2023-01-18T08:22:24.431Z,2.68
2023-01-18T08:23:23.930Z,2.61
2023-01-18T08:24:24.943Z,2.71
2023-01-18T08:25:24.487Z,2.62
2023-01-18T08:26:24.223Z,2.64
2023-01-18T08:27:27.067Z,2.64
2023-01-18T08:28:24.257Z,2.68
2023-01-18T08:29:24.248Z,2.61
2023-01-18T08:30:24.014Z,2.71
2023-01-18T08:31:25.064Z,2.65
2023-01-18T08:32:24.553Z,2.62
2023-01-18T08:33:24.591Z,2.62
2023-01-18T08:34:24.316Z,2.65
2023-01-18T08:35:26.269Z,2.62
2023-01-18T08:36:24.675Z,2.62
2023-01-18T08:37:24.621Z,2.62
2023-01-18T08:38:24.638Z,2.71
2023-01-18T08:39:24.650Z,2.65
2023-01-18T08:40:24.389Z,2.68
2023-01-18T08:41:24.685Z,2.53
2023-01-18T08:42:24.687Z,2.61
2023-01-18T08:43:24.445Z,2.53
2023-01-18T08:44:24.714Z,2.57
2023-01-18T08:45:24.722Z,2.54
2023-01-18T08:46:25.086Z,2.56
2023-01-18T08:47:24.498Z,2.53
2023-01-18T08:48:24.765Z,2.6
2023-01-18T08:49:24.905Z,2.6
2023-01-18T08:50:24.783Z,2.61
2023-01-18T08:51:24.610Z,2.57
2023-01-18T08:52:24.845Z,2.62
2023-01-18T08:53:24.572Z,2.54
2023-01-18T08:54:24.881Z,2.56
2023-01-18T08:55:24.857Z,2.57
2023-01-18T08:56:24.596Z,2.57
2023-01-18T08:57:24.367Z,2.67
2023-01-18T08:58:24.635Z,2.64
2023-01-18T08:59:24.969Z,2.53
2023-01-18T09:00:26.886Z,2.65
2023-01-18T09:01:25.601Z,2.64
2023-01-18T09:02:25.140Z,2.67
2023-01-18T09:03:25.041Z,2.54
2023-01-18T09:04:24.979Z,2.71
2023-01-18T09:05:25.007Z,2.61
2023-01-18T09:06:24.742Z,2.53
2023-01-18T09:07:25.232Z,2.54
2023-01-18T09:08:24.794Z,2.57
2023-01-18T09:09:25.024Z,2.67
2023-01-18T09:10:24.554Z,2.67
2023-01-18T09:11:25.109Z,2.54
2023-01-18T09:12:25.066Z,2.67
2023-01-18T09:13:25.075Z,2.56
2023-01-18T09:14:24.843Z,2.56
2023-01-18T09:15:25.115Z,2.61
2023-01-18T09:16:25.042Z,2.53
2023-01-18T09:17:25.631Z,2.64
2023-01-18T09:18:25.151Z,2.56
2023-01-18T09:19:25.168Z,2.56
2023-01-18T09:20:25.181Z,2.65
2023-01-18T09:21:24.913Z,2.67
2023-01-18T09:22:24.935Z,2.54
2023-01-18T09:23:25.280Z,2.53
2023-01-18T09:24:25.245Z,2.64
2023-01-18T09:25:24.968Z,2.67
2023-01-18T09:26:25.065Z,2.62
2023-01-18T09:27:25.265Z,2.62
2023-01-18T09:28:25.038Z,2.67
2023-01-18T09:29:25.280Z,2.67
2023-01-18T09:30:25.456Z,2.64
2023-01-18T09:31:25.556Z,2.68
2023-01-18T09:32:24.856Z,2.64
2023-01-18T09:33:34.000Z,2.67
2023-01-18T09:34:25.350Z,2.64
2023-01-18T09:35:25.451Z,2.61
2023-01-18T09:36:25.376Z,2.65
2023-01-18T09:37:25.406Z,2.65
2023-01-18T09:38:24.876Z,2.62
2023-01-18T09:39:25.236Z,2.65
2023-01-18T09:40:25.637Z,2.71
2023-01-18T09:41:25.458Z,2.61
2023-01-18T09:42:25.488Z,2.64
2023-01-18T09:43:25.199Z,2.68
2023-01-18T09:44:25.492Z,2.65
2023-01-18T09:45:25.535Z,2.71
2023-01-18T09:46:25.154Z,2.64
2023-01-18T09:47:25.538Z,2.65
2023-01-18T09:48:25.543Z,2.67
2023-01-18T09:49:25.554Z,2.6
2023-01-18T09:50:25.301Z,2.62
2023-01-18T09:51:25.644Z,2.67
2023-01-18T09:52:25.600Z,2.64
2023-01-18T09:53:25.352Z,2.67
2023-01-18T09:54:25.616Z,2.6
2023-01-18T09:55:25.776Z,2.62
2023-01-18T09:56:25.410Z,2.68
2023-01-18T09:57:25.692Z,2.64
2023-01-18T09:58:25.657Z,2.61
2023-01-18T09:59:25.426Z,2.69
2023-01-18T10:00:25.713Z,2.67
2023-01-18T10:01:26.218Z,2.65
2023-01-18T10:02:25.646Z,2.67
2023-01-18T10:03:25.721Z,2.69
2023-01-18T10:04:25.484Z,2.69
2023-01-18T10:05:25.495Z,2.72
2023-01-18T10:06:25.812Z,2.68
2023-01-18T10:07:25.533Z,2.72
2023-01-18T10:08:25.527Z,2.72
2023-01-18T10:09:25.582Z,2.68
2023-01-18T10:10:25.870Z,2.72
2023-01-18T10:11:25.887Z,2.68
2023-01-18T10:12:26.220Z,2.62
2023-01-18T10:13:25.604Z,2.72
2023-01-18T10:14:25.610Z,2.74
2023-01-18T10:15:25.617Z,2.67
2023-01-18T10:16:26.044Z,2.71
2023-01-18T10:17:26.123Z,2.75
2023-01-18T10:18:25.912Z,2.8
2023-01-18T10:19:25.656Z,2.75
2023-01-18T10:20:26.009Z,2.65
2023-01-18T10:21:25.983Z,2.71
2023-01-18T10:22:25.979Z,2.67
2023-01-18T10:23:26.563Z,2.68
2023-01-18T10:24:25.981Z,2.68
2023-01-18T10:25:25.745Z,2.68
2023-01-18T10:26:26.012Z,2.79
2023-01-18T10:27:26.075Z,2.8
2023-01-18T10:28:26.207Z,2.67
2023-01-18T10:29:26.057Z,2.68
2023-01-18T10:30:26.103Z,2.68
2023-01-18T10:31:26.028Z,2.82
2023-01-18T10:32:26.089Z,2.69
2023-01-18T10:33:26.089Z,2.77
2023-01-18T10:34:26.121Z,2.77
2023-01-18T10:35:25.951Z,2.64
2023-01-18T10:36:26.146Z,2.79
2023-01-18T10:37:26.180Z,2.79
2023-01-18T10:38:26.171Z,2.8
2023-01-18T10:39:25.982Z,2.79
2023-01-18T10:40:26.201Z,2.82
2023-01-18T10:41:25.943Z,2.82
2023-01-18T10:42:26.234Z,2.83
2023-01-18T10:43:26.356Z,2.82
2023-01-18T10:44:26.079Z,2.83
2023-01-18T10:45:26.371Z,2.79
2023-01-18T10:46:26.268Z,2.82
2023-01-18T10:47:26.303Z,2.79
2023-01-18T10:48:26.294Z,2.8
2023-01-18T10:49:26.304Z,2.85
2023-01-18T10:50:26.082Z,2.75
2023-01-18T10:51:26.352Z,2.79
2023-01-18T10:52:26.438Z,2.8
2023-01-18T10:53:26.310Z,2.82
2023-01-18T10:54:26.369Z,2.79
2023-01-18T10:55:26.390Z,2.82
2023-01-18T10:56:26.409Z,2.82
2023-01-18T10:57:26.409Z,2.83
2023-01-18T10:58:26.426Z,2.79
2023-01-18T10:59:26.505Z,2.8
2023-01-18T11:00:26.570Z,2.89
2023-01-18T11:01:26.530Z,2.82
2023-01-18T11:02:27.529Z,2.89
2023-01-18T11:03:26.484Z,2.75
2023-01-18T11:04:26.499Z,2.83
2023-01-18T11:05:26.504Z,2.79
2023-01-18T11:06:26.271Z,2.8
2023-01-18T11:07:26.544Z,2.79
2023-01-18T11:08:26.566Z,2.85
2023-01-18T11:09:26.308Z,2.82
2023-01-18T11:10:26.568Z,2.85
2023-01-18T11:11:26.353Z,2.85
2023-01-18T11:12:26.628Z,2.82
2023-01-18T11:13:26.099Z,2.82
2023-01-18T11:14:26.680Z,2.85
2023-01-18T11:15:26.784Z,2.82
2023-01-18T11:16:26.803Z,2.82
2023-01-18T11:17:26.797Z,2.8
2023-01-18T11:18:26.693Z,2.85
2023-01-18T11:19:26.705Z,2.83
2023-01-18T11:20:26.700Z,2.85
2023-01-18T11:21:26.731Z,2.85
2023-01-18T11:22:26.463Z,2.82
2023-01-18T11:23:26.509Z,2.85
2023-01-18T11:24:26.750Z,2.82
2023-01-18T11:25:26.502Z,2.83
2023-01-18T11:26:26.808Z,2.82
2023-01-18T11:27:26.544Z,2.83
2023-01-18T11:28:26.806Z,2.86
2023-01-18T11:29:28.557Z,2.83
2023-01-18T11:30:26.826Z,2.83
2023-01-18T11:31:27.448Z,2.93
2023-01-18T11:32:26.897Z,2.86
2023-01-18T11:33:26.883Z,2.83
2023-01-18T11:34:26.950Z,2.85
2023-01-18T11:35:26.892Z,2.85
2023-01-18T11:36:26.687Z,2.89
2023-01-18T11:37:26.923Z,2.89
2023-01-18T11:38:26.932Z,2.92
2023-01-18T11:39:26.969Z,2.87
2023-01-18T11:40:26.959Z,2.87
2023-01-18T11:41:27.012Z,2.93
2023-01-18T11:42:27.005Z,2.98
2023-01-18T11:43:26.998Z,2.87
2023-01-18T11:44:27.009Z,2.92
2023-01-18T11:45:27.575Z,2.93
2023-01-18T11:46:27.040Z,2.87
2023-01-18T11:47:27.111Z,2.89
2023-01-18T11:48:27.093Z,3
2023-01-18T11:49:27.020Z,2.89
2023-01-18T11:50:27.383Z,2.97
2023-01-18T11:51:26.837Z,2.85
2023-01-18T11:52:26.860Z,2.89
2023-01-18T11:53:27.156Z,2.87
2023-01-18T11:54:27.144Z,2.89
2023-01-18T11:55:26.901Z,2.98
2023-01-18T11:56:27.177Z,2.93
2023-01-18T11:57:27.196Z,2.95
2023-01-18T11:58:27.216Z,2.9
2023-01-18T11:59:26.947Z,2.93
2023-01-18T12:00:27.206Z,3.01
2023-01-18T12:01:27.035Z,3
2023-01-18T12:02:27.397Z,3.03
2023-01-18T12:03:27.480Z,2.93
2023-01-18T12:04:27.407Z,3.04
2023-01-18T12:05:27.090Z,3.04
2023-01-18T12:06:27.361Z,3
2023-01-18T12:07:27.308Z,3.03
2023-01-18T12:08:27.356Z,3.07
2023-01-18T12:09:27.345Z,3.05
2023-01-18T12:10:27.356Z,3.08
2023-01-18T12:11:27.383Z,3.01
2023-01-18T12:12:27.413Z,3.05
2023-01-18T12:13:27.414Z,3.03
2023-01-18T12:14:27.191Z,3.05
2023-01-18T12:15:27.153Z,3.07
2023-01-18T12:16:27.295Z,3.05
2023-01-18T12:17:27.640Z,3.1
2023-01-18T12:18:27.230Z,3.07
2023-01-18T12:19:27.614Z,3.11
2023-01-18T12:20:27.252Z,3.03
2023-01-18T12:21:27.223Z,3.1
2023-01-18T12:22:27.515Z,3.04
2023-01-18T12:23:27.012Z,3.13
2023-01-18T12:24:27.264Z,3.11
2023-01-18T12:25:27.292Z,3.14
2023-01-18T12:26:27.718Z,3.04
2023-01-18T12:27:27.052Z,3.1
2023-01-18T12:28:27.577Z,3.13
2023-01-18T12:29:27.330Z,3.11
2023-01-18T12:30:27.665Z,3.13
2023-01-18T12:31:27.758Z,3.11
2023-01-18T12:32:27.386Z,3.07
2023-01-18T12:33:47.200Z,3.07
2023-01-18T12:34:27.678Z,3.14
2023-01-18T12:35:29.755Z,3.16
2023-01-18T12:36:27.702Z,3.05
2023-01-18T12:37:27.686Z,3.14
2023-01-18T12:38:27.816Z,3.14
2023-01-18T12:39:27.712Z,3.18
2023-01-18T12:40:27.738Z,3.14
2023-01-18T12:41:27.503Z,3.11
2023-01-18T12:42:27.768Z,3.19
2023-01-18T12:43:27.512Z,3.19
2023-01-18T12:44:27.798Z,3.13
2023-01-18T12:45:27.817Z,3.16
2023-01-18T12:46:27.698Z,3.13
2023-01-18T12:47:27.832Z,3.19
2023-01-18T12:48:27.603Z,3.19
2023-01-18T12:49:27.844Z,3.16
2023-01-18T12:50:27.922Z,3.16
2023-01-18T12:51:27.958Z,3.16
2023-01-18T12:52:27.924Z,3.13
2023-01-18T12:53:27.905Z,3.14
2023-01-18T12:54:27.937Z,3.16
2023-01-18T12:55:27.948Z,3.11
2023-01-18T12:56:27.977Z,3.13
2023-01-18T12:57:27.464Z,3.22
2023-01-18T12:58:27.732Z,3.18
2023-01-18T12:59:27.739Z,3.16
2023-01-18T13:00:28.005Z,3.28
2023-01-18T13:01:28.185Z,3.14
2023-01-18T13:02:28.100Z,3.19
2023-01-18T13:03:30.050Z,3.19
2023-01-18T13:04:28.045Z,3.19
2023-01-18T13:05:28.064Z,3.19
2023-01-18T13:06:28.069Z,3.26
2023-01-18T13:07:28.144Z,3.23
2023-01-18T13:08:28.145Z,3.19
2023-01-18T13:09:27.851Z,3.29
2023-01-18T13:10:28.126Z,3.26
2023-01-18T13:11:27.881Z,3.22
2023-01-18T13:12:27.891Z,3.26
2023-01-18T13:13:28.168Z,3.29
2023-01-18T13:14:28.201Z,3.23
2023-01-18T13:15:28.170Z,3.25
2023-01-18T13:16:28.201Z,3.32
2023-01-18T13:17:28.667Z,3.21
2023-01-18T13:18:28.216Z,3.23
2023-01-18T13:19:29.760Z,3.41
2023-01-18T13:20:28.009Z,3.22
2023-01-18T13:21:28.280Z,3.21